עמוד ראשי
METAR-TAF:

METAR-TAF

שדות תעופה :

Skagway, אלסקה, ארצות הברית

קו רוחב: 59-28N, קו אורך: 135-18W, גובה: 16מטר

תצפית מזג אוויר נוכחית

הדו"ח נערך לפני 19דקות, בשעה 19:53 UTC
רוח 12קשר מכיוון דרום-מערב
טמפרטורת 13 צלסיוס
לחות 33%
לחץ 1015 hPa
ראות: 16.1קילומטר
שמיים נקיים

METAR: PAGY 171953Z AUTO 22012KT 10SM CLR 13/M03 A2997 RMK AO2 SLP148 T01331033 TSNO

זמן: 12:12 (20:12 UTC)

תחזית

הדו"ח נערך לפני 2 שעות ו 50דקות, בשעה 17:22 UTC
תחזית בתוקף מ 17 ב 18 UTC עד 18 ב 18 UTC
רוח 7קשר מכיוון דרום-מערב
ראות: 10קילומטר
שמיים נקיים
מ 17 ב 2100UTC
רוח 15קשר מכיוון דרום/דרום-מערב עם משבים עד 30קשר
ראות: 10קילומטר
שמיים נקיים
מ 18 ב 0500UTC
רוח 8קשר מכיוון דרום/דרום-מערב
ראות: 10קילומטר
שמיים נקיים

TAF: PAGY 171722Z 1718/1818 22007KT P6SM SKC FM172100 21015G30KT P6SM SKC FM180500 21008KT P6SM SKC AMD LTD TO CLD VIS AND WIND

תצפיות ותחזיות מזג אוויר לגבי יותר מ- 4,000 שדות תעופה ברחבי העולם. דוחות METAR ו- TAF.

התחנות הזמינות מסומנות בנקודות צהובות ואדומות על גבי המפה.

העבר את העכבר לנקודה הצבעונית על מנת לראות את שם התחנה.

לאחר מכן, לחץ כדי לראות את תוכן ואת תחזיות מזג האוויר.

כדי לשנות את המפה: לחץ על הכפתורים הירוקים עם הפלוס השחור כדי להתקרב; על הכפתור הירוק עם המקף כדי להתרחק; או בחיצים הירוקים למפות סמוכות.


METAR-TAF: